sensor_id;sensor_type;location;lat;lon;timestamp;P1;durP1;ratioP1;P2;durP2;ratioP2
57947;SDS011;43754;56.992;24.292;2023-05-16T00:02:16;11.40;;;6.97;;
57947;SDS011;43754;56.992;24.292;2023-05-16T00:04:49;13.90;;;6.18;;
57947;SDS011;43754;56.992;24.292;2023-05-16T00:07:21;10.13;;;6.47;;
57947;SDS011;43754;56.992;24.292;2023-05-16T00:09:53;11.45;;;7.15;;
57947;SDS011;43754;56.992;24.292;2023-05-16T00:12:26;15.40;;;8.95;;
57947;SDS011;43754;56.992;24.292;2023-05-16T00:14:58;13.57;;;7.40;;
57947;SDS011;43754;56.992;24.292;2023-05-16T00:17:31;11.35;;;7.68;;
57947;SDS011;43754;56.992;24.292;2023-05-16T00:20:03;12.65;;;6.47;;
57947;SDS011;43754;56.992;24.292;2023-05-16T00:22:41;12.02;;;7.32;;
57947;SDS011;43754;56.992;24.292;2023-05-16T00:25:13;15.23;;;6.88;;
57947;SDS011;43754;56.992;24.292;2023-05-16T00:27:46;10.00;;;6.85;;
57947;SDS011;43754;56.992;24.292;2023-05-16T00:30:19;11.88;;;7.05;;
57947;SDS011;43754;56.992;24.292;2023-05-16T00:32:51;8.38;;;7.00;;
57947;SDS011;43754;56.992;24.292;2023-05-16T00:35:27;7.93;;;6.28;;
57947;SDS011;43754;56.992;24.292;2023-05-16T00:37:59;12.07;;;7.63;;
57947;SDS011;43754;56.992;24.292;2023-05-16T00:40:31;10.57;;;7.80;;
57947;SDS011;43754;56.992;24.292;2023-05-16T00:43:05;13.77;;;8.80;;
57947;SDS011;43754;56.992;24.292;2023-05-16T00:45:37;17.42;;;9.43;;
57947;SDS011;43754;56.992;24.292;2023-05-16T00:48:09;13.55;;;9.32;;
57947;SDS011;43754;56.992;24.292;2023-05-16T00:50:43;12.93;;;7.57;;
57947;SDS011;43754;56.992;24.292;2023-05-16T00:53:16;11.80;;;7.22;;
57947;SDS011;43754;56.992;24.292;2023-05-16T00:55:48;10.35;;;6.53;;
57947;SDS011;43754;56.992;24.292;2023-05-16T00:58:21;10.68;;;7.43;;
57947;SDS011;43754;56.992;24.292;2023-05-16T01:00:55;9.23;;;6.97;;
57947;SDS011;43754;56.992;24.292;2023-05-16T01:03:28;13.50;;;7.45;;
57947;SDS011;43754;56.992;24.292;2023-05-16T01:06:02;12.10;;;9.35;;
57947;SDS011;43754;56.992;24.292;2023-05-16T01:08:35;8.45;;;7.55;;
57947;SDS011;43754;56.992;24.292;2023-05-16T01:11:08;10.90;;;6.25;;
57947;SDS011;43754;56.992;24.292;2023-05-16T01:13:50;12.23;;;8.90;;
57947;SDS011;43754;56.992;24.292;2023-05-16T01:16:31;12.52;;;8.75;;
57947;SDS011;43754;56.992;24.292;2023-05-16T01:19:12;12.48;;;8.80;;
57947;SDS011;43754;56.992;24.292;2023-05-16T01:21:52;10.02;;;8.10;;
57947;SDS011;43754;56.992;24.292;2023-05-16T01:24:34;14.40;;;7.75;;
57947;SDS011;43754;56.992;24.292;2023-05-16T01:27:16;10.65;;;8.25;;
57947;SDS011;43754;56.992;24.292;2023-05-16T01:29:50;11.30;;;7.65;;
57947;SDS011;43754;56.992;24.292;2023-05-16T01:32:26;16.08;;;9.90;;
57947;SDS011;43754;56.992;24.292;2023-05-16T01:34:58;12.70;;;8.60;;
57947;SDS011;43754;56.992;24.292;2023-05-16T01:37:32;13.38;;;8.80;;
57947;SDS011;43754;56.992;24.292;2023-05-16T01:40:11;13.35;;;8.90;;
57947;SDS011;43754;56.992;24.292;2023-05-16T01:42:48;11.27;;;7.95;;
57947;SDS011;43754;56.992;24.292;2023-05-16T01:45:23;17.75;;;11.85;;
57947;SDS011;43754;56.992;24.292;2023-05-16T01:48:03;13.38;;;9.40;;
57947;SDS011;43754;56.992;24.292;2023-05-16T01:50:38;11.55;;;9.70;;
57947;SDS011;43754;56.992;24.292;2023-05-16T01:53:18;10.70;;;7.95;;
57947;SDS011;43754;56.992;24.292;2023-05-16T01:55:56;11.23;;;9.85;;
57947;SDS011;43754;56.992;24.292;2023-05-16T01:58:32;16.92;;;8.65;;
57947;SDS011;43754;56.992;24.292;2023-05-16T02:01:07;14.25;;;9.85;;
57947;SDS011;43754;56.992;24.292;2023-05-16T02:03:40;12.80;;;8.02;;
57947;SDS011;43754;56.992;24.292;2023-05-16T02:06:13;14.30;;;7.18;;
57947;SDS011;43754;56.992;24.292;2023-05-16T02:08:45;9.63;;;5.70;;
57947;SDS011;43754;56.992;24.292;2023-05-16T02:11:17;10.13;;;6.72;;
57947;SDS011;43754;56.992;24.292;2023-05-16T02:13:50;13.48;;;7.43;;
57947;SDS011;43754;56.992;24.292;2023-05-16T02:16:22;13.02;;;8.30;;
57947;SDS011;43754;56.992;24.292;2023-05-16T02:18:54;9.30;;;8.05;;
57947;SDS011;43754;56.992;24.292;2023-05-16T02:21:26;10.35;;;8.35;;
57947;SDS011;43754;56.992;24.292;2023-05-16T02:23:58;11.23;;;7.53;;
57947;SDS011;43754;56.992;24.292;2023-05-16T02:26:31;12.13;;;7.80;;
57947;SDS011;43754;56.992;24.292;2023-05-16T02:29:04;12.65;;;8.70;;
57947;SDS011;43754;56.992;24.292;2023-05-16T02:31:36;9.55;;;7.35;;
57947;SDS011;43754;56.992;24.292;2023-05-16T02:34:09;9.30;;;6.75;;
57947;SDS011;43754;56.992;24.292;2023-05-16T02:36:42;13.30;;;6.95;;
57947;SDS011;43754;56.992;24.292;2023-05-16T02:39:14;7.55;;;6.60;;
57947;SDS011;43754;56.992;24.292;2023-05-16T02:41:46;9.63;;;6.00;;
57947;SDS011;43754;56.992;24.292;2023-05-16T02:44:20;8.48;;;6.22;;
57947;SDS011;43754;56.992;24.292;2023-05-16T02:46:52;8.82;;;6.28;;
57947;SDS011;43754;56.992;24.292;2023-05-16T02:49:24;10.65;;;6.65;;
57947;SDS011;43754;56.992;24.292;2023-05-16T02:51:56;9.23;;;6.68;;
57947;SDS011;43754;56.992;24.292;2023-05-16T02:54:28;10.95;;;6.10;;
57947;SDS011;43754;56.992;24.292;2023-05-16T02:57:00;9.38;;;6.20;;
57947;SDS011;43754;56.992;24.292;2023-05-16T02:59:34;9.77;;;7.30;;
57947;SDS011;43754;56.992;24.292;2023-05-16T03:02:06;9.20;;;8.00;;
57947;SDS011;43754;56.992;24.292;2023-05-16T03:04:38;9.77;;;7.38;;
57947;SDS011;43754;56.992;24.292;2023-05-16T03:07:10;13.07;;;7.15;;
57947;SDS011;43754;56.992;24.292;2023-05-16T03:09:42;8.93;;;7.05;;
57947;SDS011;43754;56.992;24.292;2023-05-16T03:12:15;9.43;;;5.85;;
57947;SDS011;43754;56.992;24.292;2023-05-16T03:14:48;8.93;;;7.15;;
57947;SDS011;43754;56.992;24.292;2023-05-16T03:17:22;6.85;;;5.97;;
57947;SDS011;43754;56.992;24.292;2023-05-16T03:19:55;8.20;;;6.03;;
57947;SDS011;43754;56.992;24.292;2023-05-16T03:22:27;8.43;;;5.90;;
57947;SDS011;43754;56.992;24.292;2023-05-16T03:24:59;8.43;;;6.13;;
57947;SDS011;43754;56.992;24.292;2023-05-16T03:27:31;9.73;;;7.07;;
57947;SDS011;43754;56.992;24.292;2023-05-16T03:30:05;11.40;;;6.10;;
57947;SDS011;43754;56.992;24.292;2023-05-16T03:32:38;9.55;;;5.80;;
57947;SDS011;43754;56.992;24.292;2023-05-16T03:35:10;10.40;;;6.57;;
57947;SDS011;43754;56.992;24.292;2023-05-16T03:37:42;8.98;;;6.28;;
57947;SDS011;43754;56.992;24.292;2023-05-16T03:40:15;12.93;;;6.90;;
57947;SDS011;43754;56.992;24.292;2023-05-16T03:42:47;10.88;;;6.90;;
57947;SDS011;43754;56.992;24.292;2023-05-16T03:45:20;7.72;;;6.93;;
57947;SDS011;43754;56.992;24.292;2023-05-16T03:47:52;12.13;;;7.30;;
57947;SDS011;43754;56.992;24.292;2023-05-16T03:50:24;7.32;;;6.00;;
57947;SDS011;43754;56.992;24.292;2023-05-16T03:52:56;10.25;;;6.57;;
57947;SDS011;43754;56.992;24.292;2023-05-16T03:55:28;6.47;;;5.82;;
57947;SDS011;43754;56.992;24.292;2023-05-16T03:58:01;7.03;;;5.85;;
57947;SDS011;43754;56.992;24.292;2023-05-16T04:00:35;11.20;;;6.68;;
57947;SDS011;43754;56.992;24.292;2023-05-16T04:03:07;11.50;;;6.22;;
57947;SDS011;43754;56.992;24.292;2023-05-16T04:05:39;6.78;;;5.47;;
57947;SDS011;43754;56.992;24.292;2023-05-16T04:08:11;6.10;;;5.22;;
57947;SDS011;43754;56.992;24.292;2023-05-16T04:10:43;7.72;;;6.90;;
57947;SDS011;43754;56.992;24.292;2023-05-16T04:13:15;12.73;;;6.47;;
57947;SDS011;43754;56.992;24.292;2023-05-16T04:15:49;7.10;;;6.03;;
57947;SDS011;43754;56.992;24.292;2023-05-16T04:18:21;7.55;;;6.03;;
57947;SDS011;43754;56.992;24.292;2023-05-16T04:20:53;7.57;;;5.55;;
57947;SDS011;43754;56.992;24.292;2023-05-16T04:23:25;8.30;;;5.85;;
57947;SDS011;43754;56.992;24.292;2023-05-16T04:25:57;9.23;;;5.57;;
57947;SDS011;43754;56.992;24.292;2023-05-16T04:28:30;9.75;;;6.38;;
57947;SDS011;43754;56.992;24.292;2023-05-16T04:31:03;7.22;;;6.03;;
57947;SDS011;43754;56.992;24.292;2023-05-16T04:33:35;6.45;;;5.82;;
57947;SDS011;43754;56.992;24.292;2023-05-16T04:36:07;9.25;;;5.68;;
57947;SDS011;43754;56.992;24.292;2023-05-16T04:38:40;5.05;;;4.55;;
57947;SDS011;43754;56.992;24.292;2023-05-16T04:41:12;10.98;;;5.90;;
57947;SDS011;43754;56.992;24.292;2023-05-16T04:43:44;8.43;;;5.78;;
57947;SDS011;43754;56.992;24.292;2023-05-16T04:46:18;7.32;;;4.95;;
57947;SDS011;43754;56.992;24.292;2023-05-16T04:48:51;6.00;;;5.18;;
57947;SDS011;43754;56.992;24.292;2023-05-16T04:51:23;10.18;;;5.60;;
57947;SDS011;43754;56.992;24.292;2023-05-16T04:53:55;9.88;;;5.47;;
57947;SDS011;43754;56.992;24.292;2023-05-16T04:56:27;7.20;;;5.05;;
57947;SDS011;43754;56.992;24.292;2023-05-16T04:58:59;7.45;;;5.35;;
57947;SDS011;43754;56.992;24.292;2023-05-16T05:01:32;7.82;;;5.03;;
57947;SDS011;43754;56.992;24.292;2023-05-16T05:04:04;7.63;;;5.25;;
57947;SDS011;43754;56.992;24.292;2023-05-16T05:06:36;7.18;;;5.30;;
57947;SDS011;43754;56.992;24.292;2023-05-16T05:09:09;7.20;;;4.90;;
57947;SDS011;43754;56.992;24.292;2023-05-16T05:11:41;6.75;;;5.30;;
57947;SDS011;43754;56.992;24.292;2023-05-16T05:14:13;5.30;;;4.80;;
57947;SDS011;43754;56.992;24.292;2023-05-16T05:16:46;9.50;;;5.45;;
57947;SDS011;43754;56.992;24.292;2023-05-16T05:19:18;9.00;;;5.43;;
57947;SDS011;43754;56.992;24.292;2023-05-16T05:21:50;6.55;;;4.70;;
57947;SDS011;43754;56.992;24.292;2023-05-16T05:24:22;5.97;;;5.07;;
57947;SDS011;43754;56.992;24.292;2023-05-16T05:26:54;7.45;;;5.10;;
57947;SDS011;43754;56.992;24.292;2023-05-16T05:29:27;9.90;;;5.35;;
57947;SDS011;43754;56.992;24.292;2023-05-16T05:32:00;6.18;;;4.93;;
57947;SDS011;43754;56.992;24.292;2023-05-16T05:34:32;5.88;;;5.03;;
57947;SDS011;43754;56.992;24.292;2023-05-16T05:37:05;5.20;;;4.70;;
57947;SDS011;43754;56.992;24.292;2023-05-16T05:39:37;6.15;;;4.30;;
57947;SDS011;43754;56.992;24.292;2023-05-16T05:42:09;5.32;;;4.05;;
57947;SDS011;43754;56.992;24.292;2023-05-16T05:44:42;6.10;;;4.57;;
57947;SDS011;43754;56.992;24.292;2023-05-16T05:47:15;7.63;;;4.25;;
57947;SDS011;43754;56.992;24.292;2023-05-16T05:49:47;6.22;;;4.88;;
57947;SDS011;43754;56.992;24.292;2023-05-16T05:52:20;6.05;;;4.63;;
57947;SDS011;43754;56.992;24.292;2023-05-16T05:54:52;9.43;;;4.28;;
57947;SDS011;43754;56.992;24.292;2023-05-16T05:57:25;5.65;;;4.50;;
57947;SDS011;43754;56.992;24.292;2023-05-16T05:59:57;9.02;;;4.32;;
57947;SDS011;43754;56.992;24.292;2023-05-16T06:02:30;6.05;;;4.25;;
57947;SDS011;43754;56.992;24.292;2023-05-16T06:05:02;6.10;;;4.88;;
57947;SDS011;43754;56.992;24.292;2023-05-16T06:07:35;7.43;;;4.30;;
57947;SDS011;43754;56.992;24.292;2023-05-16T06:10:07;7.95;;;4.35;;
57947;SDS011;43754;56.992;24.292;2023-05-16T06:12:39;5.32;;;4.43;;
57947;SDS011;43754;56.992;24.292;2023-05-16T06:15:11;6.07;;;4.38;;
57947;SDS011;43754;56.992;24.292;2023-05-16T06:17:45;10.57;;;4.63;;
57947;SDS011;43754;56.992;24.292;2023-05-16T06:20:17;8.60;;;4.13;;
57947;SDS011;43754;56.992;24.292;2023-05-16T06:22:49;7.53;;;4.50;;
57947;SDS011;43754;56.992;24.292;2023-05-16T06:25:21;14.23;;;4.95;;
57947;SDS011;43754;56.992;24.292;2023-05-16T06:27:53;6.47;;;4.38;;
57947;SDS011;43754;56.992;24.292;2023-05-16T06:30:25;5.70;;;4.10;;
57947;SDS011;43754;56.992;24.292;2023-05-16T06:32:58;7.97;;;4.75;;
57947;SDS011;43754;56.992;24.292;2023-05-16T06:35:30;6.47;;;4.95;;
57947;SDS011;43754;56.992;24.292;2023-05-16T06:38:03;7.00;;;4.32;;
57947;SDS011;43754;56.992;24.292;2023-05-16T06:40:35;8.25;;;4.70;;
57947;SDS011;43754;56.992;24.292;2023-05-16T06:43:07;11.68;;;5.13;;
57947;SDS011;43754;56.992;24.292;2023-05-16T06:45:39;6.47;;;4.95;;
57947;SDS011;43754;56.992;24.292;2023-05-16T06:48:13;11.15;;;4.88;;
57947;SDS011;43754;56.992;24.292;2023-05-16T06:50:46;5.55;;;3.88;;
57947;SDS011;43754;56.992;24.292;2023-05-16T06:53:19;6.20;;;4.30;;
57947;SDS011;43754;56.992;24.292;2023-05-16T06:55:51;6.90;;;4.65;;
57947;SDS011;43754;56.992;24.292;2023-05-16T06:58:23;9.32;;;4.80;;
57947;SDS011;43754;56.992;24.292;2023-05-16T07:00:55;10.70;;;4.90;;
57947;SDS011;43754;56.992;24.292;2023-05-16T07:03:29;9.45;;;4.38;;
57947;SDS011;43754;56.992;24.292;2023-05-16T07:06:02;6.25;;;4.20;;
57947;SDS011;43754;56.992;24.292;2023-05-16T07:08:34;6.47;;;4.15;;
57947;SDS011;43754;56.992;24.292;2023-05-16T07:11:07;5.55;;;4.28;;
57947;SDS011;43754;56.992;24.292;2023-05-16T07:13:42;5.43;;;4.15;;
57947;SDS011;43754;56.992;24.292;2023-05-16T07:16:14;8.63;;;4.47;;
57947;SDS011;43754;56.992;24.292;2023-05-16T07:18:47;7.80;;;4.63;;
57947;SDS011;43754;56.992;24.292;2023-05-16T07:21:20;11.68;;;5.00;;
57947;SDS011;43754;56.992;24.292;2023-05-16T07:23:52;6.70;;;4.55;;
57947;SDS011;43754;56.992;24.292;2023-05-16T07:26:24;5.93;;;4.70;;
57947;SDS011;43754;56.992;24.292;2023-05-16T07:28:57;4.35;;;3.95;;
57947;SDS011;43754;56.992;24.292;2023-05-16T07:31:29;7.97;;;4.57;;
57947;SDS011;43754;56.992;24.292;2023-05-16T07:34:03;7.47;;;4.43;;
57947;SDS011;43754;56.992;24.292;2023-05-16T07:36:35;9.93;;;5.18;;
57947;SDS011;43754;56.992;24.292;2023-05-16T07:39:07;6.90;;;4.45;;
57947;SDS011;43754;56.992;24.292;2023-05-16T07:41:39;8.00;;;4.80;;
57947;SDS011;43754;56.992;24.292;2023-05-16T07:44:11;7.13;;;4.57;;
57947;SDS011;43754;56.992;24.292;2023-05-16T07:46:43;6.90;;;4.18;;
57947;SDS011;43754;56.992;24.292;2023-05-16T07:49:17;10.52;;;4.25;;
57947;SDS011;43754;56.992;24.292;2023-05-16T07:51:49;10.32;;;4.72;;
57947;SDS011;43754;56.992;24.292;2023-05-16T07:54:21;6.35;;;4.28;;
57947;SDS011;43754;56.992;24.292;2023-05-16T07:56:53;9.88;;;4.30;;
57947;SDS011;43754;56.992;24.292;2023-05-16T07:59:26;7.72;;;4.15;;
57947;SDS011;43754;56.992;24.292;2023-05-16T08:01:58;7.03;;;4.22;;
57947;SDS011;43754;56.992;24.292;2023-05-16T08:04:32;8.77;;;4.10;;
57947;SDS011;43754;56.992;24.292;2023-05-16T08:07:04;6.40;;;4.10;;
57947;SDS011;43754;56.992;24.292;2023-05-16T08:09:36;7.13;;;4.63;;
57947;SDS011;43754;56.992;24.292;2023-05-16T08:12:08;4.30;;;3.90;;
57947;SDS011;43754;56.992;24.292;2023-05-16T08:14:40;6.13;;;4.20;;
57947;SDS011;43754;56.992;24.292;2023-05-16T08:17:12;6.63;;;4.60;;
57947;SDS011;43754;56.992;24.292;2023-05-16T08:19:46;5.93;;;4.90;;
57947;SDS011;43754;56.992;24.292;2023-05-16T08:22:18;7.63;;;3.95;;
57947;SDS011;43754;56.992;24.292;2023-05-16T08:24:50;6.88;;;4.45;;
57947;SDS011;43754;56.992;24.292;2023-05-16T08:27:22;6.03;;;4.50;;
57947;SDS011;43754;56.992;24.292;2023-05-16T08:29:54;7.20;;;5.30;;
57947;SDS011;43754;56.992;24.292;2023-05-16T08:32:26;11.38;;;4.82;;
57947;SDS011;43754;56.992;24.292;2023-05-16T08:35:00;7.55;;;4.68;;
57947;SDS011;43754;56.992;24.292;2023-05-16T08:37:32;7.45;;;4.60;;
57947;SDS011;43754;56.992;24.292;2023-05-16T08:40:06;6.88;;;4.72;;
57947;SDS011;43754;56.992;24.292;2023-05-16T08:42:41;13.88;;;4.85;;
57947;SDS011;43754;56.992;24.292;2023-05-16T08:45:15;8.23;;;4.10;;
57947;SDS011;43754;56.992;24.292;2023-05-16T08:47:48;10.75;;;4.90;;
57947;SDS011;43754;56.992;24.292;2023-05-16T08:50:22;7.07;;;4.80;;
57947;SDS011;43754;56.992;24.292;2023-05-16T08:52:55;9.32;;;4.45;;
57947;SDS011;43754;56.992;24.292;2023-05-16T08:55:27;5.65;;;4.53;;
57947;SDS011;43754;56.992;24.292;2023-05-16T08:58:00;7.53;;;5.35;;
57947;SDS011;43754;56.992;24.292;2023-05-16T09:00:32;5.22;;;4.72;;
57947;SDS011;43754;56.992;24.292;2023-05-16T09:03:06;12.50;;;4.82;;
57947;SDS011;43754;56.992;24.292;2023-05-16T09:05:40;8.20;;;5.22;;
57947;SDS011;43754;56.992;24.292;2023-05-16T09:08:12;9.43;;;5.15;;
57947;SDS011;43754;56.992;24.292;2023-05-16T09:10:44;7.45;;;4.90;;
57947;SDS011;43754;56.992;24.292;2023-05-16T09:13:16;9.07;;;4.53;;
57947;SDS011;43754;56.992;24.292;2023-05-16T09:18:39;6.78;;;4.50;;
57947;SDS011;43754;56.992;24.292;2023-05-16T09:21:15;7.30;;;5.05;;
57947;SDS011;43754;56.992;24.292;2023-05-16T09:23:47;5.35;;;4.85;;
57947;SDS011;43754;56.992;24.292;2023-05-16T09:26:20;6.68;;;4.45;;
57947;SDS011;43754;56.992;24.292;2023-05-16T09:28:53;6.22;;;4.80;;
57947;SDS011;43754;56.992;24.292;2023-05-16T09:31:28;6.22;;;4.30;;
57947;SDS011;43754;56.992;24.292;2023-05-16T09:34:07;5.65;;;4.68;;
57947;SDS011;43754;56.992;24.292;2023-05-16T09:36:43;6.55;;;4.07;;
57947;SDS011;43754;56.992;24.292;2023-05-16T09:39:15;5.25;;;4.65;;
57947;SDS011;43754;56.992;24.292;2023-05-16T09:41:50;10.35;;;4.53;;
57947;SDS011;43754;56.992;24.292;2023-05-16T09:44:22;6.22;;;4.70;;
57947;SDS011;43754;56.992;24.292;2023-05-16T09:46:55;6.65;;;5.03;;
57947;SDS011;43754;56.992;24.292;2023-05-16T09:49:27;5.45;;;4.00;;
57947;SDS011;43754;56.992;24.292;2023-05-16T09:52:01;8.50;;;4.57;;
57947;SDS011;43754;56.992;24.292;2023-05-16T09:54:34;5.50;;;4.75;;
57947;SDS011;43754;56.992;24.292;2023-05-16T09:57:06;4.70;;;4.10;;
57947;SDS011;43754;56.992;24.292;2023-05-16T09:59:38;4.80;;;4.32;;
57947;SDS011;43754;56.992;24.292;2023-05-16T10:02:11;4.85;;;4.32;;
57947;SDS011;43754;56.992;24.292;2023-05-16T10:04:44;6.82;;;4.57;;
57947;SDS011;43754;56.992;24.292;2023-05-16T10:07:18;5.65;;;3.75;;
57947;SDS011;43754;56.992;24.292;2023-05-16T10:09:52;8.00;;;5.05;;
57947;SDS011;43754;56.992;24.292;2023-05-16T10:12:28;5.70;;;4.15;;
57947;SDS011;43754;56.992;24.292;2023-05-16T10:15:05;6.75;;;4.75;;
57947;SDS011;43754;56.992;24.292;2023-05-16T10:17:38;6.03;;;4.50;;
57947;SDS011;43754;56.992;24.292;2023-05-16T10:20:11;5.25;;;4.50;;
57947;SDS011;43754;56.992;24.292;2023-05-16T10:22:45;5.38;;;4.72;;
57947;SDS011;43754;56.992;24.292;2023-05-16T10:25:20;5.22;;;4.60;;
57947;SDS011;43754;56.992;24.292;2023-05-16T10:28:00;7.63;;;5.55;;
57947;SDS011;43754;56.992;24.292;2023-05-16T10:30:33;7.80;;;5.75;;
57947;SDS011;43754;56.992;24.292;2023-05-16T10:33:06;5.18;;;4.68;;
57947;SDS011;43754;56.992;24.292;2023-05-16T10:35:39;8.75;;;5.90;;
57947;SDS011;43754;56.992;24.292;2023-05-16T10:38:13;7.65;;;6.30;;
57947;SDS011;43754;56.992;24.292;2023-05-16T10:40:48;10.75;;;5.63;;
57947;SDS011;43754;56.992;24.292;2023-05-16T10:43:22;8.02;;;6.47;;
57947;SDS011;43754;56.992;24.292;2023-05-16T10:45:57;9.43;;;6.90;;
57947;SDS011;43754;56.992;24.292;2023-05-16T10:48:30;9.70;;;6.13;;
57947;SDS011;43754;56.992;24.292;2023-05-16T10:51:04;6.63;;;5.53;;
57947;SDS011;43754;56.992;24.292;2023-05-16T10:54:06;7.47;;;6.60;;
57947;SDS011;43754;56.992;24.292;2023-05-16T10:56:40;7.03;;;5.82;;
57947;SDS011;43754;56.992;24.292;2023-05-16T10:59:21;8.15;;;6.63;;
57947;SDS011;43754;56.992;24.292;2023-05-16T11:01:55;8.90;;;7.65;;
57947;SDS011;43754;56.992;24.292;2023-05-16T11:07:16;7.70;;;6.90;;
57947;SDS011;43754;56.992;24.292;2023-05-16T11:10:00;10.85;;;7.00;;
57947;SDS011;43754;56.992;24.292;2023-05-16T11:12:35;9.55;;;8.45;;
57947;SDS011;43754;56.992;24.292;2023-05-16T11:15:19;8.93;;;7.53;;
57947;SDS011;43754;56.992;24.292;2023-05-16T11:18:06;9.00;;;7.55;;
57947;SDS011;43754;56.992;24.292;2023-05-16T11:20:39;7.70;;;6.50;;
57947;SDS011;43754;56.992;24.292;2023-05-16T11:23:22;7.13;;;6.53;;
57947;SDS011;43754;56.992;24.292;2023-05-16T11:25:57;8.07;;;7.30;;
57947;SDS011;43754;56.992;24.292;2023-05-16T11:28:31;9.43;;;7.95;;
57947;SDS011;43754;56.992;24.292;2023-05-16T11:31:03;8.43;;;7.63;;
57947;SDS011;43754;56.992;24.292;2023-05-16T11:33:36;8.93;;;8.10;;
57947;SDS011;43754;56.992;24.292;2023-05-16T11:36:11;7.60;;;6.88;;
57947;SDS011;43754;56.992;24.292;2023-05-16T11:38:47;7.55;;;6.90;;
57947;SDS011;43754;56.992;24.292;2023-05-16T11:41:20;7.35;;;6.10;;
57947;SDS011;43754;56.992;24.292;2023-05-16T11:43:52;5.97;;;5.47;;
57947;SDS011;43754;56.992;24.292;2023-05-16T11:46:24;7.03;;;6.30;;
57947;SDS011;43754;56.992;24.292;2023-05-16T11:48:58;6.82;;;6.07;;
57947;SDS011;43754;56.992;24.292;2023-05-16T11:51:30;7.05;;;6.35;;
57947;SDS011;43754;56.992;24.292;2023-05-16T11:54:02;7.22;;;5.65;;
57947;SDS011;43754;56.992;24.292;2023-05-16T11:56:37;6.28;;;5.78;;
57947;SDS011;43754;56.992;24.292;2023-05-16T11:59:11;9.02;;;6.18;;
57947;SDS011;43754;56.992;24.292;2023-05-16T12:01:43;6.43;;;5.80;;
57947;SDS011;43754;56.992;24.292;2023-05-16T12:04:15;8.27;;;6.97;;
57947;SDS011;43754;56.992;24.292;2023-05-16T12:06:58;6.53;;;5.88;;
57947;SDS011;43754;56.992;24.292;2023-05-16T12:09:31;6.93;;;5.95;;
57947;SDS011;43754;56.992;24.292;2023-05-16T12:12:06;7.00;;;5.45;;
57947;SDS011;43754;56.992;24.292;2023-05-16T12:14:38;6.05;;;5.45;;
57947;SDS011;43754;56.992;24.292;2023-05-16T12:17:10;5.93;;;5.35;;
57947;SDS011;43754;56.992;24.292;2023-05-16T12:19:42;6.28;;;4.97;;
57947;SDS011;43754;56.992;24.292;2023-05-16T12:22:16;7.25;;;5.72;;
57947;SDS011;43754;56.992;24.292;2023-05-16T12:24:50;6.80;;;6.10;;
57947;SDS011;43754;56.992;24.292;2023-05-16T12:27:24;7.30;;;6.60;;
57947;SDS011;43754;56.992;24.292;2023-05-16T12:29:57;9.70;;;7.22;;
57947;SDS011;43754;56.992;24.292;2023-05-16T12:32:29;7.50;;;6.75;;
57947;SDS011;43754;56.992;24.292;2023-05-16T12:35:09;11.25;;;6.93;;
57947;SDS011;43754;56.992;24.292;2023-05-16T12:37:43;7.50;;;6.63;;
57947;SDS011;43754;56.992;24.292;2023-05-16T12:40:15;7.40;;;6.68;;
57947;SDS011;43754;56.992;24.292;2023-05-16T12:42:49;8.02;;;6.55;;
57947;SDS011;43754;56.992;24.292;2023-05-16T12:45:22;7.40;;;6.80;;
57947;SDS011;43754;56.992;24.292;2023-05-16T12:47:54;6.38;;;5.78;;
57947;SDS011;43754;56.992;24.292;2023-05-16T12:50:27;7.60;;;7.00;;
57947;SDS011;43754;56.992;24.292;2023-05-16T12:52:59;7.88;;;7.18;;
57947;SDS011;43754;56.992;24.292;2023-05-16T12:55:32;8.82;;;8.10;;
57947;SDS011;43754;56.992;24.292;2023-05-16T12:58:07;10.15;;;9.20;;
57947;SDS011;43754;56.992;24.292;2023-05-16T13:00:40;9.98;;;8.77;;
57947;SDS011;43754;56.992;24.292;2023-05-16T13:03:12;9.82;;;8.82;;
57947;SDS011;43754;56.992;24.292;2023-05-16T13:05:44;9.80;;;8.90;;
57947;SDS011;43754;56.992;24.292;2023-05-16T13:08:16;11.55;;;9.55;;
57947;SDS011;43754;56.992;24.292;2023-05-16T13:10:48;11.40;;;9.25;;
57947;SDS011;43754;56.992;24.292;2023-05-16T13:13:22;9.30;;;8.43;;
57947;SDS011;43754;56.992;24.292;2023-05-16T13:16:06;9.23;;;8.32;;
57947;SDS011;43754;56.992;24.292;2023-05-16T13:18:38;10.43;;;9.50;;
57947;SDS011;43754;56.992;24.292;2023-05-16T13:21:10;10.32;;;9.20;;
57947;SDS011;43754;56.992;24.292;2023-05-16T13:23:42;10.82;;;9.18;;
57947;SDS011;43754;56.992;24.292;2023-05-16T13:26:14;9.98;;;8.82;;
57947;SDS011;43754;56.992;24.292;2023-05-16T13:28:48;8.73;;;7.93;;
57947;SDS011;43754;56.992;24.292;2023-05-16T13:31:23;9.02;;;8.10;;
57947;SDS011;43754;56.992;24.292;2023-05-16T13:33:55;7.70;;;7.00;;
57947;SDS011;43754;56.992;24.292;2023-05-16T13:36:27;8.18;;;7.47;;
57947;SDS011;43754;56.992;24.292;2023-05-16T13:39:19;7.13;;;6.43;;
57947;SDS011;43754;56.992;24.292;2023-05-16T13:41:52;7.38;;;6.65;;
57947;SDS011;43754;56.992;24.292;2023-05-16T13:44:26;8.05;;;6.60;;
57947;SDS011;43754;56.992;24.292;2023-05-16T13:46:58;7.68;;;6.38;;
57947;SDS011;43754;56.992;24.292;2023-05-16T13:49:30;7.00;;;5.95;;
57947;SDS011;43754;56.992;24.292;2023-05-16T13:52:02;6.85;;;5.68;;
57947;SDS011;43754;56.992;24.292;2023-05-16T13:54:34;7.20;;;5.57;;
57947;SDS011;43754;56.992;24.292;2023-05-16T13:57:06;6.82;;;5.50;;
57947;SDS011;43754;56.992;24.292;2023-05-16T13:59:40;6.60;;;5.55;;
57947;SDS011;43754;56.992;24.292;2023-05-16T14:02:15;5.15;;;4.63;;
57947;SDS011;43754;56.992;24.292;2023-05-16T14:04:47;5.22;;;4.70;;
57947;SDS011;43754;56.992;24.292;2023-05-16T14:07:20;5.07;;;4.57;;
57947;SDS011;43754;56.992;24.292;2023-05-16T14:09:52;5.20;;;4.72;;
57947;SDS011;43754;56.992;24.292;2023-05-16T14:12:24;5.10;;;4.55;;
57947;SDS011;43754;56.992;24.292;2023-05-16T14:14:58;7.80;;;5.38;;
57947;SDS011;43754;56.992;24.292;2023-05-16T14:17:30;10.23;;;5.47;;
57947;SDS011;43754;56.992;24.292;2023-05-16T14:20:03;7.60;;;5.30;;
57947;SDS011;43754;56.992;24.292;2023-05-16T14:22:40;5.90;;;5.32;;
57947;SDS011;43754;56.992;24.292;2023-05-16T14:25:12;7.13;;;6.28;;
57947;SDS011;43754;56.992;24.292;2023-05-16T14:27:44;6.63;;;5.97;;
57947;SDS011;43754;56.992;24.292;2023-05-16T14:30:17;7.28;;;5.80;;
57947;SDS011;43754;56.992;24.292;2023-05-16T14:32:49;6.50;;;5.97;;
57947;SDS011;43754;56.992;24.292;2023-05-16T14:35:21;9.30;;;5.53;;
57947;SDS011;43754;56.992;24.292;2023-05-16T14:37:54;6.15;;;5.63;;
57947;SDS011;43754;56.992;24.292;2023-05-16T14:40:26;4.97;;;4.57;;
57947;SDS011;43754;56.992;24.292;2023-05-16T14:42:58;7.00;;;5.95;;
57947;SDS011;43754;56.992;24.292;2023-05-16T14:45:31;12.07;;;8.68;;
57947;SDS011;43754;56.992;24.292;2023-05-16T14:48:04;7.15;;;6.45;;
57947;SDS011;43754;56.992;24.292;2023-05-16T14:50:38;7.32;;;5.70;;
57947;SDS011;43754;56.992;24.292;2023-05-16T14:53:11;7.35;;;6.65;;
57947;SDS011;43754;56.992;24.292;2023-05-16T14:55:43;8.63;;;6.32;;
57947;SDS011;43754;56.992;24.292;2023-05-16T14:58:15;8.02;;;5.30;;
57947;SDS011;43754;56.992;24.292;2023-05-16T15:00:49;5.82;;;4.68;;
57947;SDS011;43754;56.992;24.292;2023-05-16T15:03:21;5.75;;;4.32;;
57947;SDS011;43754;56.992;24.292;2023-05-16T15:05:53;5.63;;;3.45;;
57947;SDS011;43754;56.992;24.292;2023-05-16T15:08:25;5.25;;;2.90;;
57947;SDS011;43754;56.992;24.292;2023-05-16T15:10:57;2.65;;;2.45;;
57947;SDS011;43754;56.992;24.292;2023-05-16T15:13:29;4.90;;;3.00;;